createdAt,value
2023-04-07T00:01:41.302Z,100.00
2023-04-07T00:04:08.703Z,100.00
2023-04-07T00:06:36.635Z,100.00
2023-04-07T00:09:03.867Z,100.00
2023-04-07T00:11:31.034Z,100.00
2023-04-07T00:13:58.232Z,100.00
2023-04-07T00:16:25.457Z,100.00
2023-04-07T00:18:52.680Z,100.00
2023-04-07T00:21:20.095Z,100.00
2023-04-07T00:23:47.687Z,100.00
2023-04-07T00:26:15.429Z,100.00
2023-04-07T00:28:44.424Z,100.00
2023-04-07T00:31:14.769Z,100.00
2023-04-07T00:33:42.043Z,100.00
2023-04-07T00:36:09.372Z,100.00
2023-04-07T00:38:36.643Z,100.00
2023-04-07T00:41:03.804Z,100.00
2023-04-07T00:43:31.086Z,100.00
2023-04-07T00:45:58.603Z,100.00
2023-04-07T00:48:26.059Z,100.00
2023-04-07T00:50:53.300Z,100.00
2023-04-07T00:53:21.062Z,100.00
2023-04-07T00:55:48.504Z,100.00
2023-04-07T00:58:15.966Z,100.00
2023-04-07T01:00:56.358Z,100.00
2023-04-07T01:03:39.930Z,100.00
2023-04-07T01:06:08.728Z,100.00
2023-04-07T01:08:46.018Z,100.00
2023-04-07T01:11:28.655Z,100.00
2023-04-07T01:13:59.904Z,100.00
2023-04-07T01:16:53.956Z,100.00
2023-04-07T01:19:40.291Z,100.00
2023-04-07T01:22:22.141Z,100.00
2023-04-07T01:25:44.067Z,100.00
2023-04-07T01:29:03.052Z,100.00
2023-04-07T01:31:31.067Z,100.00
2023-04-07T01:34:00.870Z,100.00
2023-04-07T01:36:29.576Z,100.00
2023-04-07T01:38:57.371Z,100.00
2023-04-07T01:41:26.745Z,100.00
2023-04-07T01:43:55.784Z,100.00
2023-04-07T01:46:24.856Z,100.00
2023-04-07T01:48:52.733Z,100.00
2023-04-07T01:51:22.659Z,100.00
2023-04-07T01:53:50.368Z,100.00
2023-04-07T01:56:17.881Z,100.00
2023-04-07T01:58:49.366Z,100.00
2023-04-07T02:01:19.458Z,100.00
2023-04-07T02:04:32.588Z,100.00
2023-04-07T02:07:22.440Z,100.00
2023-04-07T02:09:57.058Z,100.00
2023-04-07T02:12:27.722Z,100.00
2023-04-07T02:15:13.664Z,100.00
2023-04-07T02:17:49.187Z,100.00
2023-04-07T02:20:17.816Z,100.00
2023-04-07T02:22:45.170Z,100.00
2023-04-07T02:25:32.204Z,100.00
2023-04-07T02:28:01.516Z,100.00
2023-04-07T02:30:29.231Z,100.00
2023-04-07T02:32:57.390Z,100.00
2023-04-07T02:35:24.825Z,100.00
2023-04-07T02:37:52.059Z,100.00
2023-04-07T02:40:19.266Z,100.00
2023-04-07T02:42:47.612Z,100.00
2023-04-07T02:45:15.987Z,100.00
2023-04-07T02:47:43.267Z,100.00
2023-04-07T02:50:11.260Z,100.00
2023-04-07T02:52:38.456Z,100.00
2023-04-07T02:55:11.498Z,100.00
2023-04-07T02:57:39.340Z,100.00
2023-04-07T03:00:12.337Z,100.00
2023-04-07T03:02:57.709Z,100.00
2023-04-07T03:05:25.673Z,100.00
2023-04-07T03:07:52.868Z,100.00
2023-04-07T03:10:20.933Z,100.00
2023-04-07T03:12:48.071Z,100.00
2023-04-07T03:15:17.595Z,100.00
2023-04-07T03:17:47.887Z,100.00
2023-04-07T03:20:17.141Z,100.00
2023-04-07T03:22:44.742Z,100.00
2023-04-07T03:25:18.580Z,100.00
2023-04-07T03:27:49.067Z,100.00
2023-04-07T03:30:16.532Z,100.00
2023-04-07T03:32:45.707Z,100.00
2023-04-07T03:35:13.143Z,100.00
2023-04-07T03:37:40.316Z,100.00
2023-04-07T03:40:13.146Z,100.00
2023-04-07T03:42:41.141Z,100.00
2023-04-07T03:45:10.845Z,100.00
2023-04-07T03:47:42.813Z,100.00
2023-04-07T03:50:11.182Z,100.00
2023-04-07T03:52:48.723Z,100.00
2023-04-07T03:55:23.950Z,100.00
2023-04-07T03:57:55.316Z,100.00
2023-04-07T04:00:23.021Z,100.00
2023-04-07T04:03:04.938Z,100.00
2023-04-07T04:05:33.775Z,100.00
2023-04-07T04:08:01.158Z,100.00
2023-04-07T04:10:30.340Z,100.00
2023-04-07T04:13:03.688Z,100.00
2023-04-07T04:15:31.161Z,100.00
2023-04-07T04:17:59.341Z,100.00
2023-04-07T04:20:26.546Z,100.00
2023-04-07T04:22:53.714Z,100.00
2023-04-07T04:25:21.970Z,100.00
2023-04-07T04:27:53.425Z,100.00
2023-04-07T04:30:23.691Z,100.00
2023-04-07T04:32:55.502Z,100.00
2023-04-07T04:35:30.474Z,100.00
2023-04-07T04:38:17.123Z,100.00
2023-04-07T04:40:50.835Z,100.00
2023-04-07T04:43:22.527Z,100.00
2023-04-07T04:45:50.955Z,100.00
2023-04-07T04:48:20.000Z,100.00
2023-04-07T04:50:47.993Z,100.00
2023-04-07T04:53:15.748Z,100.00
2023-04-07T04:55:52.140Z,100.00
2023-04-07T04:58:24.004Z,100.00
2023-04-07T05:00:58.270Z,100.00
2023-04-07T05:03:31.485Z,100.00
2023-04-07T05:06:03.304Z,100.00
2023-04-07T05:08:30.737Z,100.00
2023-04-07T05:10:58.402Z,100.00
2023-04-07T05:13:30.992Z,100.00
2023-04-07T05:16:01.651Z,100.00
2023-04-07T05:18:30.471Z,100.00
2023-04-07T05:20:59.136Z,100.00
2023-04-07T05:23:28.032Z,100.00
2023-04-07T05:25:55.755Z,100.00
2023-04-07T05:28:24.898Z,100.00
2023-04-07T05:30:54.276Z,100.00
2023-04-07T05:33:26.671Z,100.00
2023-04-07T05:35:54.787Z,100.00
2023-04-07T05:38:22.389Z,100.00
2023-04-07T05:40:50.641Z,100.00
2023-04-07T05:43:25.909Z,100.00
2023-04-07T05:45:53.131Z,100.00
2023-04-07T05:48:21.561Z,100.00
2023-04-07T05:50:49.382Z,100.00
2023-04-07T05:53:18.793Z,100.00
2023-04-07T05:55:46.621Z,100.00
2023-04-07T05:58:23.133Z,100.00
2023-04-07T06:00:53.976Z,100.00
2023-04-07T06:03:21.364Z,100.00
2023-04-07T06:05:59.171Z,100.00
2023-04-07T06:08:27.158Z,100.00
2023-04-07T06:10:54.761Z,100.00
2023-04-07T06:13:22.055Z,100.00
2023-04-07T06:15:49.371Z,100.00
2023-04-07T06:18:16.787Z,100.00
2023-04-07T06:20:44.013Z,100.00
2023-04-07T06:23:11.283Z,100.00
2023-04-07T06:25:38.504Z,100.00
2023-04-07T06:28:06.265Z,100.00
2023-04-07T06:30:34.876Z,100.00
2023-04-07T06:33:02.064Z,100.00
2023-04-07T06:35:29.250Z,100.00
2023-04-07T06:37:56.967Z,100.00
2023-04-07T06:40:24.264Z,100.00
2023-04-07T06:42:51.935Z,100.00
2023-04-07T06:45:27.902Z,100.00
2023-04-07T06:47:55.279Z,100.00
2023-04-07T06:50:22.687Z,100.00
2023-04-07T06:52:49.861Z,100.00
2023-04-07T06:55:17.395Z,100.00
2023-04-07T06:57:44.686Z,100.00
2023-04-07T07:00:12.471Z,100.00
2023-04-07T07:02:39.915Z,100.00
2023-04-07T07:05:08.291Z,100.00
2023-04-07T07:07:35.454Z,100.00
2023-04-07T07:10:03.953Z,100.00
2023-04-07T07:12:32.383Z,100.00
2023-04-07T07:14:59.515Z,100.00
2023-04-07T07:17:26.742Z,100.00
2023-04-07T07:19:53.995Z,100.00
2023-04-07T07:22:21.277Z,100.00
2023-04-07T07:24:48.516Z,100.00
2023-04-07T07:27:15.878Z,100.00
2023-04-07T07:29:43.284Z,100.00
2023-04-07T07:32:10.648Z,100.00
2023-04-07T07:34:37.877Z,100.00
2023-04-07T07:37:05.375Z,100.00
2023-04-07T07:39:32.592Z,100.00
2023-04-07T07:41:59.801Z,100.00
2023-04-07T07:44:26.980Z,100.00
2023-04-07T07:46:54.222Z,100.00
2023-04-07T07:49:21.876Z,100.00
2023-04-07T07:51:49.209Z,100.00
2023-04-07T07:54:16.927Z,100.00
2023-04-07T07:56:44.191Z,100.00
2023-04-07T07:59:11.489Z,100.00
2023-04-07T08:01:38.833Z,100.00
2023-04-07T08:04:06.098Z,100.00
2023-04-07T08:06:33.473Z,100.00
2023-04-07T08:09:00.861Z,100.00
2023-04-07T08:11:28.088Z,100.00
2023-04-07T08:13:55.950Z,100.00
2023-04-07T08:16:24.135Z,100.00
2023-04-07T08:18:51.730Z,100.00
2023-04-07T08:21:20.014Z,100.00
2023-04-07T08:23:47.324Z,100.00
2023-04-07T08:26:14.721Z,100.00
2023-04-07T08:28:42.801Z,100.00
2023-04-07T08:31:09.970Z,100.00
2023-04-07T08:33:37.285Z,100.00
2023-04-07T08:36:05.396Z,100.00
2023-04-07T08:38:33.140Z,100.00
2023-04-07T08:41:09.047Z,100.00
2023-04-07T08:43:38.855Z,100.00
2023-04-07T08:46:08.977Z,100.00
2023-04-07T08:48:39.049Z,100.00
2023-04-07T08:51:10.353Z,100.00
2023-04-07T08:53:51.663Z,100.00
2023-04-07T08:56:21.416Z,100.00
2023-04-07T08:58:49.530Z,100.00
2023-04-07T09:01:18.305Z,100.00
2023-04-07T09:03:47.206Z,100.00
2023-04-07T09:06:15.352Z,100.00
2023-04-07T09:08:42.577Z,100.00
2023-04-07T09:11:09.798Z,100.00
2023-04-07T09:13:37.072Z,100.00
2023-04-07T09:16:04.894Z,100.00
2023-04-07T09:18:32.147Z,100.00
2023-04-07T09:21:05.690Z,100.00
2023-04-07T09:23:39.965Z,100.00
2023-04-07T09:26:28.289Z,100.00
2023-04-07T09:29:00.599Z,100.00
2023-04-07T09:31:50.782Z,100.00
2023-04-07T09:34:41.231Z,100.00
2023-04-07T09:37:11.983Z,100.00
2023-04-07T09:39:52.030Z,100.00
2023-04-07T09:42:21.469Z,100.00
2023-04-07T09:44:48.867Z,100.00
2023-04-07T09:47:16.094Z,100.00
2023-04-07T09:49:56.013Z,100.00
2023-04-07T09:52:49.536Z,100.00
2023-04-07T09:55:17.470Z,100.00
2023-04-07T09:57:45.473Z,100.00
2023-04-07T10:00:13.748Z,100.00
2023-04-07T10:02:42.250Z,100.00
2023-04-07T10:05:11.437Z,100.00
2023-04-07T10:07:39.988Z,100.00
2023-04-07T10:10:09.111Z,100.00
2023-04-07T10:12:38.707Z,100.00
2023-04-07T10:15:07.259Z,100.00
2023-04-07T10:17:37.209Z,100.00
2023-04-07T10:20:07.502Z,100.00
2023-04-07T10:22:37.995Z,100.00
2023-04-07T10:25:11.485Z,100.00
2023-04-07T10:27:58.205Z,100.00
2023-04-07T10:30:31.614Z,100.00
2023-04-07T10:32:59.465Z,100.00
2023-04-07T10:35:28.342Z,100.00
2023-04-07T10:38:08.098Z,100.00
2023-04-07T10:40:37.278Z,97.55
2023-04-07T10:43:15.097Z,93.61
2023-04-07T10:45:48.592Z,97.72
2023-04-07T10:48:19.284Z,96.57
2023-04-07T10:51:07.606Z,98.25
2023-04-07T10:53:36.146Z,97.10
2023-04-07T10:56:03.558Z,96.23
2023-04-07T10:58:33.214Z,90.78
2023-04-07T11:01:06.455Z,90.46
2023-04-07T11:03:52.531Z,83.70
2023-04-07T11:06:20.574Z,83.18
2023-04-07T11:08:50.573Z,86.53
2023-04-07T11:11:38.961Z,88.04
2023-04-07T11:14:06.641Z,84.92
2023-04-07T11:16:45.417Z,91.46
2023-04-07T11:19:12.724Z,92.46
2023-04-07T11:21:40.008Z,87.67
2023-04-07T11:24:07.181Z,82.95
2023-04-07T11:26:42.226Z,66.36
2023-04-07T11:29:12.002Z,58.75
2023-04-07T11:31:39.877Z,59.96
2023-04-07T11:34:07.577Z,57.00
2023-04-07T11:36:40.467Z,59.81
2023-04-07T11:39:23.603Z,64.21
2023-04-07T11:41:51.460Z,68.92
2023-04-07T11:44:18.782Z,72.59
2023-04-07T11:47:03.778Z,72.80
2023-04-07T11:49:32.354Z,75.38
2023-04-07T11:52:09.399Z,76.39
2023-04-07T11:54:51.900Z,78.97
2023-04-07T11:57:29.675Z,80.92
2023-04-07T12:00:14.226Z,82.07
2023-04-07T12:02:42.113Z,79.93
2023-04-07T12:05:10.551Z,79.29
2023-04-07T12:07:40.525Z,77.89
2023-04-07T12:10:23.723Z,74.66
2023-04-07T12:12:51.546Z,75.61
2023-04-07T12:15:19.010Z,80.68
2023-04-07T12:17:48.553Z,77.82
2023-04-07T12:20:16.737Z,75.31
2023-04-07T12:22:43.936Z,75.08
2023-04-07T12:25:11.360Z,74.38
2023-04-07T12:27:42.728Z,71.39
2023-04-07T12:30:12.780Z,70.59
2023-04-07T12:32:40.497Z,68.84
2023-04-07T12:35:08.060Z,68.83
2023-04-07T12:37:35.734Z,67.38
2023-04-07T12:40:03.967Z,67.54
2023-04-07T12:42:31.254Z,65.39
2023-04-07T12:44:58.420Z,64.00
2023-04-07T12:47:25.947Z,59.23
2023-04-07T12:49:53.190Z,58.55
2023-04-07T12:52:20.428Z,60.49
2023-04-07T12:54:47.700Z,63.38
2023-04-07T12:57:15.992Z,62.40
2023-04-07T12:59:43.033Z,59.30
2023-04-07T13:02:11.832Z,59.58
2023-04-07T13:04:43.399Z,57.56
2023-04-07T13:07:10.556Z,60.60
2023-04-07T13:09:37.855Z,62.55
2023-04-07T13:12:05.089Z,61.75
2023-04-07T13:14:32.311Z,61.09
2023-04-07T13:16:59.481Z,62.27
2023-04-07T13:19:26.615Z,61.12
2023-04-07T13:21:53.787Z,59.39
2023-04-07T13:24:21.876Z,58.82
2023-04-07T13:26:49.209Z,57.18
2023-04-07T13:29:16.970Z,55.31
2023-04-07T13:31:46.941Z,54.95
2023-04-07T13:34:14.719Z,56.27
2023-04-07T13:36:42.461Z,55.98
2023-04-07T13:39:09.632Z,58.76
2023-04-07T13:41:36.740Z,58.82
2023-04-07T13:44:03.881Z,56.73
2023-04-07T13:46:31.164Z,59.25
2023-04-07T13:48:58.542Z,59.51
2023-04-07T13:51:25.821Z,56.65
2023-04-07T13:53:53.033Z,60.14
2023-04-07T13:56:20.227Z,57.98
2023-04-07T13:58:47.941Z,59.41
2023-04-07T14:01:15.414Z,54.98
2023-04-07T14:03:42.961Z,57.14
2023-04-07T14:06:10.368Z,59.50
2023-04-07T14:08:37.519Z,58.74
2023-04-07T14:11:04.666Z,60.59
2023-04-07T14:13:31.921Z,60.96
2023-04-07T14:15:59.260Z,62.40
2023-04-07T14:18:28.014Z,63.05
2023-04-07T14:20:55.178Z,64.33
2023-04-07T14:23:33.947Z,65.06
2023-04-07T14:26:04.256Z,64.38
2023-04-07T14:28:31.868Z,62.91
2023-04-07T14:30:59.066Z,66.27
2023-04-07T14:33:26.637Z,66.77
2023-04-07T14:35:53.875Z,67.53
2023-04-07T14:38:24.296Z,65.84
2023-04-07T14:40:52.950Z,63.42
2023-04-07T14:43:20.472Z,61.07
2023-04-07T14:45:47.651Z,63.09
2023-04-07T14:48:14.843Z,63.97
2023-04-07T14:50:42.036Z,68.36
2023-04-07T14:53:09.341Z,71.40
2023-04-07T14:55:37.011Z,71.83
2023-04-07T14:58:04.129Z,71.82
2023-04-07T15:00:31.458Z,69.29
2023-04-07T15:02:58.884Z,71.56
2023-04-07T15:05:27.951Z,72.26
2023-04-07T15:07:55.245Z,73.34
2023-04-07T15:10:22.466Z,86.92
2023-04-07T15:12:50.320Z,95.09
2023-04-07T15:15:18.065Z,89.33
2023-04-07T15:17:45.555Z,93.95
2023-04-07T15:20:13.510Z,100.00
2023-04-07T15:22:40.815Z,97.01
2023-04-07T15:25:08.669Z,94.01
2023-04-07T15:27:35.950Z,93.67
2023-04-07T15:30:03.835Z,90.21
2023-04-07T15:32:32.092Z,85.76
2023-04-07T15:34:59.277Z,100.00
2023-04-07T15:37:26.854Z,100.00
2023-04-07T15:39:54.346Z,100.00
2023-04-07T15:42:21.522Z,100.00
2023-04-07T15:44:49.982Z,100.00
2023-04-07T15:47:17.126Z,100.00
2023-04-07T15:49:44.311Z,100.00
2023-04-07T15:52:13.520Z,100.00
2023-04-07T15:54:40.735Z,100.00
2023-04-07T15:57:07.950Z,100.00
2023-04-07T15:59:36.131Z,100.00
2023-04-07T16:02:03.409Z,100.00
2023-04-07T16:04:30.737Z,100.00
2023-04-07T16:06:57.898Z,100.00
2023-04-07T16:09:25.821Z,100.00
2023-04-07T16:11:53.015Z,100.00
2023-04-07T16:14:20.558Z,100.00
2023-04-07T16:16:47.794Z,100.00
2023-04-07T16:19:15.107Z,100.00
2023-04-07T16:21:42.609Z,100.00
2023-04-07T16:24:09.836Z,100.00
2023-04-07T16:26:37.003Z,100.00
2023-04-07T16:29:04.120Z,100.00
2023-04-07T16:31:31.285Z,100.00
2023-04-07T16:33:58.522Z,100.00
2023-04-07T16:36:26.555Z,100.00
2023-04-07T16:38:53.872Z,100.00
2023-04-07T16:41:21.893Z,100.00
2023-04-07T16:43:49.173Z,100.00
2023-04-07T16:46:16.512Z,100.00
2023-04-07T16:48:43.758Z,100.00
2023-04-07T16:51:11.096Z,100.00
2023-04-07T16:53:38.485Z,100.00
2023-04-07T16:56:05.892Z,100.00
2023-04-07T16:58:33.065Z,100.00
2023-04-07T17:01:00.452Z,100.00
2023-04-07T17:03:27.752Z,100.00
2023-04-07T17:05:55.023Z,100.00
2023-04-07T17:08:22.318Z,100.00
2023-04-07T17:10:49.490Z,100.00
2023-04-07T17:13:16.861Z,100.00
2023-04-07T17:15:43.972Z,100.00
2023-04-07T17:18:11.285Z,100.00
2023-04-07T17:20:38.652Z,100.00
2023-04-07T17:23:05.823Z,100.00
2023-04-07T17:25:33.036Z,100.00
2023-04-07T17:28:00.267Z,100.00
2023-04-07T17:30:27.425Z,100.00
2023-04-07T17:32:54.598Z,100.00
2023-04-07T17:35:22.635Z,100.00
2023-04-07T17:37:50.772Z,100.00
2023-04-07T17:40:18.378Z,100.00
2023-04-07T17:42:45.728Z,100.00
2023-04-07T17:45:12.957Z,100.00
2023-04-07T17:47:40.431Z,100.00
2023-04-07T17:50:09.086Z,100.00
2023-04-07T17:52:36.289Z,100.00
2023-04-07T17:55:03.840Z,100.00
2023-04-07T17:57:32.834Z,100.00
2023-04-07T18:00:00.018Z,100.00
2023-04-07T18:02:27.460Z,100.00
2023-04-07T18:04:56.196Z,100.00
2023-04-07T18:07:23.851Z,100.00
2023-04-07T18:09:51.152Z,100.00
2023-04-07T18:12:18.691Z,100.00
2023-04-07T18:14:45.908Z,100.00
2023-04-07T18:17:13.200Z,100.00
2023-04-07T18:19:40.476Z,100.00
2023-04-07T18:22:09.753Z,100.00
2023-04-07T18:24:37.202Z,100.00
2023-04-07T18:27:05.372Z,100.00
2023-04-07T18:29:32.577Z,100.00
2023-04-07T18:31:59.722Z,100.00
2023-04-07T18:34:26.953Z,100.00
2023-04-07T18:36:54.112Z,100.00
2023-04-07T18:39:22.029Z,100.00
2023-04-07T18:41:49.786Z,100.00
2023-04-07T18:44:17.443Z,100.00
2023-04-07T18:46:46.032Z,100.00
2023-04-07T18:49:13.473Z,100.00
2023-04-07T18:51:42.154Z,100.00
2023-04-07T18:54:09.411Z,100.00
2023-04-07T18:56:36.769Z,100.00
2023-04-07T18:59:04.043Z,100.00
2023-04-07T19:01:31.424Z,100.00
2023-04-07T19:03:58.757Z,100.00
2023-04-07T19:06:26.395Z,100.00
2023-04-07T19:08:53.734Z,100.00
2023-04-07T19:11:20.915Z,100.00
2023-04-07T19:13:49.358Z,100.00
2023-04-07T19:16:16.934Z,100.00
2023-04-07T19:18:44.245Z,100.00
2023-04-07T19:21:13.314Z,100.00
2023-04-07T19:23:43.643Z,100.00
2023-04-07T19:26:11.701Z,100.00
2023-04-07T19:28:41.093Z,100.00
2023-04-07T19:31:08.687Z,100.00
2023-04-07T19:33:36.755Z,100.00
2023-04-07T19:36:04.863Z,100.00
2023-04-07T19:38:32.128Z,100.00
2023-04-07T19:40:59.377Z,100.00
2023-04-07T19:43:26.565Z,100.00
2023-04-07T19:45:54.220Z,100.00
2023-04-07T19:48:21.465Z,100.00
2023-04-07T19:50:49.598Z,100.00
2023-04-07T19:53:17.945Z,100.00
2023-04-07T19:55:47.040Z,100.00
2023-04-07T19:58:17.021Z,100.00
2023-04-07T20:00:45.635Z,100.00
2023-04-07T20:03:13.061Z,100.00
2023-04-07T20:05:40.405Z,100.00
2023-04-07T20:08:07.562Z,100.00
2023-04-07T20:10:34.750Z,100.00
2023-04-07T20:13:01.926Z,100.00
2023-04-07T20:15:29.653Z,100.00
2023-04-07T20:17:56.801Z,100.00
2023-04-07T20:20:24.162Z,100.00
2023-04-07T20:22:51.417Z,100.00
2023-04-07T20:25:18.759Z,100.00
2023-04-07T20:27:48.952Z,100.00
2023-04-07T20:30:16.793Z,100.00
2023-04-07T20:32:45.939Z,100.00
2023-04-07T20:35:13.469Z,100.00
2023-04-07T20:37:40.812Z,100.00
2023-04-07T20:40:09.160Z,100.00
2023-04-07T20:42:36.790Z,100.00
2023-04-07T20:45:06.314Z,100.00
2023-04-07T20:47:36.019Z,100.00
2023-04-07T20:50:03.496Z,100.00
2023-04-07T20:52:30.732Z,100.00
2023-04-07T20:54:58.302Z,100.00
2023-04-07T20:57:25.487Z,100.00
2023-04-07T20:59:52.819Z,100.00
2023-04-07T21:02:20.308Z,100.00
2023-04-07T21:04:47.884Z,100.00
2023-04-07T21:07:15.125Z,100.00
2023-04-07T21:09:42.277Z,100.00
2023-04-07T21:12:10.477Z,100.00
2023-04-07T21:14:37.630Z,100.00
2023-04-07T21:17:04.768Z,100.00
2023-04-07T21:19:32.349Z,100.00
2023-04-07T21:22:00.571Z,100.00
2023-04-07T21:24:29.571Z,100.00
2023-04-07T21:26:56.759Z,100.00
2023-04-07T21:29:24.500Z,100.00
2023-04-07T21:31:51.688Z,100.00
2023-04-07T21:34:18.885Z,100.00
2023-04-07T21:36:46.092Z,100.00
2023-04-07T21:39:13.208Z,100.00
2023-04-07T21:41:40.324Z,100.00
2023-04-07T21:44:10.518Z,100.00
2023-04-07T21:46:38.003Z,100.00
2023-04-07T21:49:05.212Z,100.00
2023-04-07T21:51:33.661Z,100.00
2023-04-07T21:54:01.409Z,100.00
2023-04-07T21:56:29.168Z,100.00
2023-04-07T21:58:56.814Z,100.00
2023-04-07T22:01:24.153Z,100.00
2023-04-07T22:03:51.667Z,100.00
2023-04-07T22:06:18.962Z,100.00
2023-04-07T22:08:54.928Z,100.00
2023-04-07T22:11:28.166Z,100.00
2023-04-07T22:13:55.423Z,100.00
2023-04-07T22:16:22.609Z,100.00
2023-04-07T22:18:50.625Z,100.00
2023-04-07T22:21:18.093Z,100.00
2023-04-07T22:23:45.467Z,100.00
2023-04-07T22:26:13.883Z,100.00
2023-04-07T22:28:41.552Z,100.00
2023-04-07T22:31:08.732Z,100.00
2023-04-07T22:33:36.033Z,100.00
2023-04-07T22:36:04.038Z,100.00
2023-04-07T22:38:31.353Z,100.00
2023-04-07T22:40:58.501Z,100.00
2023-04-07T22:43:25.679Z,100.00
2023-04-07T22:45:52.811Z,100.00
2023-04-07T22:48:20.000Z,100.00
2023-04-07T22:50:47.204Z,100.00
2023-04-07T22:53:14.370Z,100.00
2023-04-07T22:55:41.710Z,100.00
2023-04-07T22:58:08.915Z,100.00
2023-04-07T23:00:36.283Z,100.00
2023-04-07T23:03:03.619Z,100.00
2023-04-07T23:05:30.982Z,100.00
2023-04-07T23:07:58.575Z,100.00
2023-04-07T23:10:25.766Z,100.00
2023-04-07T23:12:56.374Z,100.00
2023-04-07T23:15:23.673Z,100.00
2023-04-07T23:17:50.919Z,100.00
2023-04-07T23:20:18.378Z,100.00
2023-04-07T23:22:45.656Z,100.00
2023-04-07T23:25:12.795Z,100.00
2023-04-07T23:27:40.003Z,100.00
2023-04-07T23:30:08.628Z,100.00
2023-04-07T23:32:35.667Z,100.00
2023-04-07T23:35:02.877Z,100.00
2023-04-07T23:37:29.994Z,100.00
2023-04-07T23:39:57.109Z,100.00
2023-04-07T23:42:24.385Z,100.00
2023-04-07T23:44:51.558Z,100.00
2023-04-07T23:47:18.706Z,100.00
2023-04-07T23:49:45.860Z,100.00
2023-04-07T23:52:13.021Z,100.00
2023-04-07T23:54:40.180Z,100.00
2023-04-07T23:57:07.451Z,100.00
2023-04-07T23:59:34.640Z,100.00
